createdAt,value
2022-10-19T00:01:25.518Z,94022.41
2022-10-19T00:03:56.446Z,94019.75
2022-10-19T00:06:26.974Z,94017.63
2022-10-19T00:09:04.525Z,94018.19
2022-10-19T00:11:35.327Z,94019.00
2022-10-19T00:14:04.747Z,94009.03
2022-10-19T00:16:37.420Z,94019.44
2022-10-19T00:19:10.513Z,94019.38
2022-10-19T00:21:40.897Z,94021.66
2022-10-19T00:24:10.440Z,94024.56
2022-10-19T00:26:39.326Z,94023.31
2022-10-19T00:29:08.449Z,94025.38
2022-10-19T00:31:38.024Z,94030.13
2022-10-19T00:34:06.790Z,94028.38
2022-10-19T00:36:38.139Z,94023.56
2022-10-19T00:39:08.464Z,94020.50
2022-10-19T00:41:38.269Z,94026.00
2022-10-19T00:44:17.110Z,94025.13
2022-10-19T00:46:50.053Z,94031.53
2022-10-19T00:49:28.657Z,94028.38
2022-10-19T00:52:05.036Z,94024.66
2022-10-19T00:54:35.048Z,94034.31
2022-10-19T00:57:06.359Z,94030.84
2022-10-19T00:59:35.983Z,94030.94
2022-10-19T01:02:06.406Z,94037.66
2022-10-19T01:04:39.470Z,94033.78
2022-10-19T01:07:09.572Z,94033.63
2022-10-19T01:09:38.060Z,94034.41
2022-10-19T01:12:35.069Z,94037.97
2022-10-19T01:15:09.678Z,94049.06
2022-10-19T01:17:47.460Z,94046.75
2022-10-19T01:20:45.989Z,94044.56
2022-10-19T01:23:42.402Z,94060.28
2022-10-19T01:26:16.503Z,94057.94
2022-10-19T01:29:25.620Z,94061.66
2022-10-19T01:32:41.388Z,94068.59
2022-10-19T01:35:21.448Z,94068.53
2022-10-19T01:38:09.130Z,94066.56
2022-10-19T01:40:55.696Z,94073.84
2022-10-19T01:43:34.988Z,94075.47
2022-10-19T01:46:18.345Z,94073.59
2022-10-19T01:48:56.226Z,94084.56
2022-10-19T01:51:35.580Z,94083.28
2022-10-19T01:54:13.289Z,94086.88
2022-10-19T01:56:45.329Z,94097.94
2022-10-19T01:59:15.724Z,94101.63
2022-10-19T02:01:47.979Z,94089.50
2022-10-19T02:04:20.272Z,94092.63
2022-10-19T02:06:48.609Z,94088.13
2022-10-19T02:09:19.571Z,94085.34
2022-10-19T02:12:00.983Z,94089.25
2022-10-19T02:14:35.294Z,94089.03
2022-10-19T02:17:09.476Z,94087.28
2022-10-19T02:19:38.535Z,94093.69
2022-10-19T02:22:08.494Z,94091.91
2022-10-19T02:24:36.964Z,94093.03
2022-10-19T02:27:08.004Z,94092.66
2022-10-19T02:29:38.574Z,94099.44
2022-10-19T02:32:08.041Z,94101.28
2022-10-19T02:34:38.071Z,94103.81
2022-10-19T02:37:08.199Z,94109.97
2022-10-19T02:39:36.786Z,94110.44
2022-10-19T02:42:21.235Z,94099.91
2022-10-19T02:44:59.496Z,94101.41
2022-10-19T02:47:33.309Z,94110.03
2022-10-19T02:50:02.634Z,94115.72
2022-10-19T02:52:31.651Z,94106.78
2022-10-19T02:55:00.208Z,94110.84
2022-10-19T02:57:28.948Z,94118.44
2022-10-19T02:59:57.421Z,94115.44
2022-10-19T03:02:26.656Z,94111.88
2022-10-19T03:04:55.116Z,94120.03
2022-10-19T03:07:23.456Z,94115.22
2022-10-19T03:09:52.234Z,94119.00
2022-10-19T03:12:20.796Z,94112.66
2022-10-19T03:14:49.353Z,94114.16
2022-10-19T03:17:17.677Z,94121.28
2022-10-19T03:19:46.479Z,94122.50
2022-10-19T03:22:18.765Z,94131.47
2022-10-19T03:24:47.239Z,94138.03
2022-10-19T03:27:15.708Z,94137.75
2022-10-19T03:29:44.280Z,94141.66
2022-10-19T03:32:12.790Z,94146.59
2022-10-19T03:34:44.219Z,94152.75
2022-10-19T03:37:14.693Z,94150.97
2022-10-19T03:39:43.148Z,94149.34
2022-10-19T03:42:11.688Z,94151.03
2022-10-19T03:44:40.165Z,94146.50
2022-10-19T03:47:08.605Z,94138.00
2022-10-19T03:49:39.548Z,94147.50
2022-10-19T03:52:11.246Z,94152.59
2022-10-19T03:54:39.895Z,94150.84
2022-10-19T03:57:07.842Z,94153.22
2022-10-19T03:59:36.300Z,94158.66
2022-10-19T04:02:05.304Z,94158.66
2022-10-19T04:04:33.894Z,94160.53
2022-10-19T04:07:02.441Z,94146.38
2022-10-19T04:09:31.067Z,94154.75
2022-10-19T04:11:59.158Z,94152.28
2022-10-19T04:14:33.068Z,94148.59
2022-10-19T04:17:08.059Z,94150.28
2022-10-19T04:19:36.528Z,94153.81
2022-10-19T04:22:05.419Z,94148.16
2022-10-19T04:24:34.038Z,94150.06
2022-10-19T04:27:03.158Z,94153.31
2022-10-19T04:29:31.670Z,94150.88
2022-10-19T04:32:00.946Z,94146.19
2022-10-19T04:34:29.448Z,94150.09
2022-10-19T04:37:00.627Z,94152.28
2022-10-19T04:39:29.174Z,94150.91
2022-10-19T04:41:57.710Z,94146.16
2022-10-19T04:44:26.335Z,94150.84
2022-10-19T04:46:54.811Z,94147.63
2022-10-19T04:49:23.391Z,94149.47
2022-10-19T04:51:51.899Z,94151.31
2022-10-19T04:54:20.362Z,94150.72
2022-10-19T04:56:48.817Z,94141.78
2022-10-19T04:59:17.439Z,94144.19
2022-10-19T05:01:47.350Z,94150.72
2022-10-19T05:04:16.006Z,94155.38
2022-10-19T05:06:44.558Z,94149.91
2022-10-19T05:09:13.196Z,94145.44
2022-10-19T05:11:41.727Z,94150.97
2022-10-19T05:14:10.327Z,94140.81
2022-10-19T05:16:38.713Z,94139.22
2022-10-19T05:19:07.184Z,94136.56
2022-10-19T05:21:35.751Z,94133.09
2022-10-19T05:24:04.588Z,94124.00
2022-10-19T05:26:33.290Z,94129.47
2022-10-19T05:29:04.008Z,94125.81
2022-10-19T05:31:34.914Z,94130.88
2022-10-19T05:34:05.081Z,94130.69
2022-10-19T05:36:39.479Z,94129.69
2022-10-19T05:39:10.945Z,94128.66
2022-10-19T05:41:39.567Z,94133.53
2022-10-19T05:44:07.918Z,94134.97
2022-10-19T05:46:36.519Z,94138.19
2022-10-19T05:49:05.249Z,94145.91
2022-10-19T05:51:34.034Z,94149.75
2022-10-19T05:54:02.095Z,94146.91
2022-10-19T05:56:32.697Z,94145.09
2022-10-19T05:59:04.564Z,94141.25
2022-10-19T06:01:34.447Z,94147.53
2022-10-19T06:04:04.599Z,94146.31
2022-10-19T06:06:33.345Z,94149.34
2022-10-19T06:09:02.362Z,94146.28
2022-10-19T06:11:36.263Z,94144.47
2022-10-19T06:14:07.589Z,94143.25
2022-10-19T06:16:36.818Z,94142.84
2022-10-19T06:19:06.608Z,94145.69
2022-10-19T06:21:37.266Z,94144.28
2022-10-19T06:24:08.011Z,94144.69
2022-10-19T06:26:36.929Z,94149.75
2022-10-19T06:29:06.288Z,94145.09
2022-10-19T06:31:37.716Z,94146.72
2022-10-19T06:34:06.715Z,94149.94
2022-10-19T06:36:35.853Z,94142.03
2022-10-19T06:39:05.109Z,94153.59
2022-10-19T06:41:35.449Z,94148.94
2022-10-19T06:44:03.788Z,94147.72
2022-10-19T06:46:33.627Z,94156.25
2022-10-19T06:49:03.687Z,94158.06
2022-10-19T06:51:35.079Z,94158.88
2022-10-19T06:54:04.564Z,94156.63
2022-10-19T06:56:36.355Z,94162.31
2022-10-19T06:59:05.040Z,94157.66
2022-10-19T07:01:33.530Z,94165.34
2022-10-19T07:04:02.137Z,94153.63
2022-10-19T07:06:30.836Z,94163.97
2022-10-19T07:08:59.425Z,94171.66
2022-10-19T07:11:27.982Z,94165.56
2022-10-19T07:13:56.692Z,94159.47
2022-10-19T07:16:25.202Z,94166.78
2022-10-19T07:18:54.914Z,94159.06
2022-10-19T07:21:24.591Z,94153.00
2022-10-19T07:23:52.937Z,94150.75
2022-10-19T07:26:25.890Z,94157.38
2022-10-19T07:28:56.367Z,94156.72
2022-10-19T07:31:26.362Z,94154.31
2022-10-19T07:33:56.584Z,94161.63
2022-10-19T07:36:26.666Z,94152.47
2022-10-19T07:38:54.780Z,94151.28
2022-10-19T07:41:25.499Z,94150.25
2022-10-19T07:43:55.328Z,94149.88
2022-10-19T07:46:30.494Z,94147.09
2022-10-19T07:48:59.048Z,94144.88
2022-10-19T07:53:58.595Z,94141.03
2022-10-19T07:56:29.061Z,94143.22
2022-10-19T07:58:59.575Z,94140.63
2022-10-19T08:01:30.891Z,94146.31
2022-10-19T08:06:49.740Z,94141.06
2022-10-19T08:09:39.940Z,94136.81
2022-10-19T08:12:11.185Z,94132.72
2022-10-19T08:14:43.303Z,94136.16
2022-10-19T08:17:17.974Z,94132.72
2022-10-19T08:19:48.384Z,94128.09
2022-10-19T08:22:17.096Z,94129.63
2022-10-19T08:24:46.154Z,94114.56
2022-10-19T08:27:16.174Z,94121.13
2022-10-19T08:29:44.749Z,94125.72
2022-10-19T08:32:13.214Z,94125.13
2022-10-19T08:34:41.817Z,94116.81
2022-10-19T08:37:20.109Z,94113.31
2022-10-19T08:39:58.882Z,94107.56
2022-10-19T08:42:54.138Z,94126.31
2022-10-19T08:45:37.830Z,94117.78
2022-10-19T08:48:05.713Z,94126.03
2022-10-19T08:50:41.457Z,94118.44
2022-10-19T08:53:28.554Z,94120.34
2022-10-19T08:56:04.709Z,94117.81
2022-10-19T08:58:51.627Z,94119.88
2022-10-19T09:01:23.153Z,94121.81
2022-10-19T09:04:06.314Z,94117.38
2022-10-19T09:07:10.160Z,94118.97
2022-10-19T09:09:48.029Z,94117.34
2022-10-19T09:12:21.283Z,94115.31
2022-10-19T09:15:02.320Z,94121.75
2022-10-19T09:17:33.741Z,94109.56
2022-10-19T09:20:24.679Z,94105.09
2022-10-19T09:23:06.718Z,94111.22
2022-10-19T09:25:40.296Z,94110.66
2022-10-19T09:28:39.920Z,94101.38
2022-10-19T09:31:44.106Z,94101.25
2022-10-19T09:34:38.127Z,94100.94
2022-10-19T09:37:06.351Z,94097.72
2022-10-19T09:39:36.558Z,94096.09
2022-10-19T09:42:31.849Z,94099.75
2022-10-19T09:45:03.371Z,94094.53
2022-10-19T09:47:35.266Z,94103.59
2022-10-19T09:50:09.768Z,94084.78
2022-10-19T09:52:41.197Z,94092.47
2022-10-19T09:55:27.990Z,94087.19
2022-10-19T09:58:03.334Z,94087.38
2022-10-19T10:00:43.531Z,94088.75
2022-10-19T10:03:24.120Z,94091.97
2022-10-19T10:05:53.223Z,94085.13
2022-10-19T10:08:25.054Z,94087.31
2022-10-19T10:11:13.333Z,94088.53
2022-10-19T10:13:49.555Z,94083.03
2022-10-19T10:16:21.808Z,94086.28
2022-10-19T10:18:58.482Z,94080.81
2022-10-19T10:21:36.592Z,94073.97
2022-10-19T10:24:13.422Z,94084.06
2022-10-19T10:26:44.644Z,94079.63
2022-10-19T10:29:31.470Z,94077.38
2022-10-19T10:32:21.677Z,94078.75
2022-10-19T10:35:01.010Z,94079.50
2022-10-19T10:37:49.468Z,94081.72
2022-10-19T10:40:40.084Z,94090.03
2022-10-19T10:43:18.202Z,94091.53
2022-10-19T10:45:51.187Z,94082.41
2022-10-19T10:48:28.239Z,94082.34
2022-10-19T10:50:58.331Z,94071.56
2022-10-19T10:53:47.432Z,94062.97
2022-10-19T10:56:22.309Z,94071.84
2022-10-19T10:59:00.867Z,94076.94
2022-10-19T11:01:46.722Z,94082.19
2022-10-19T11:04:30.110Z,94076.31
2022-10-19T11:07:12.047Z,94079.34
2022-10-19T11:09:46.319Z,94088.38
2022-10-19T11:12:20.680Z,94074.53
2022-10-19T11:15:02.769Z,94064.03
2022-10-19T11:17:35.804Z,94047.94
2022-10-19T11:20:06.895Z,94054.63
2022-10-19T11:23:13.771Z,94062.69
2022-10-19T11:25:45.353Z,94055.00
2022-10-19T11:28:27.756Z,94061.22
2022-10-19T11:31:03.959Z,94057.16
2022-10-19T11:33:38.095Z,94052.47
2022-10-19T11:36:15.642Z,94049.03
2022-10-19T11:39:04.276Z,94053.44
2022-10-19T11:42:04.810Z,94052.88
2022-10-19T11:45:02.409Z,94055.53
2022-10-19T11:47:55.976Z,94057.69
2022-10-19T11:50:53.891Z,94054.69
2022-10-19T11:53:58.979Z,94053.06
2022-10-19T11:56:51.501Z,94041.22
2022-10-19T11:59:49.268Z,94044.38
2022-10-19T12:02:54.560Z,94041.13
2022-10-19T12:05:29.200Z,94030.44
2022-10-19T12:08:38.883Z,94044.38
2022-10-19T12:11:10.248Z,94051.72
2022-10-19T12:13:51.723Z,94048.84
2022-10-19T12:16:23.133Z,94052.28
2022-10-19T12:18:56.747Z,94057.78
2022-10-19T12:21:32.613Z,94054.50
2022-10-19T12:24:05.557Z,94062.59
2022-10-19T12:26:38.380Z,94052.34
2022-10-19T12:29:17.607Z,94048.00
2022-10-19T12:31:47.714Z,94050.00
2022-10-19T12:34:33.969Z,94046.09
2022-10-19T12:37:30.942Z,94052.34
2022-10-19T12:40:22.790Z,94062.13
2022-10-19T12:43:09.726Z,94062.13
2022-10-19T12:45:53.827Z,94058.44
2022-10-19T12:48:25.782Z,94055.09
2022-10-19T12:50:58.520Z,94043.78
2022-10-19T12:53:32.809Z,94040.91
2022-10-19T12:56:04.233Z,94047.75
2022-10-19T12:58:48.155Z,94048.13
2022-10-19T13:01:36.940Z,94059.63
2022-10-19T13:04:19.622Z,94053.09
2022-10-19T13:07:12.426Z,94037.09
2022-10-19T13:09:44.472Z,94031.41
2022-10-19T13:12:19.947Z,94027.22
2022-10-19T13:14:53.574Z,94030.91
2022-10-19T13:17:47.510Z,94041.53
2022-10-19T13:20:15.449Z,94046.81
2022-10-19T13:22:52.319Z,94047.88
2022-10-19T13:25:29.786Z,94034.84
2022-10-19T13:28:19.113Z,94035.28
2022-10-19T13:30:47.273Z,94035.56
2022-10-19T13:33:31.677Z,94037.81
2022-10-19T13:36:03.462Z,94046.16
2022-10-19T13:41:26.885Z,94052.41
2022-10-19T13:44:21.468Z,94059.25
2022-10-19T13:47:13.574Z,94063.84
2022-10-19T13:49:54.532Z,94073.41
2022-10-19T13:52:59.885Z,94076.31
2022-10-19T13:56:03.151Z,94083.72
2022-10-19T13:58:46.322Z,94078.66
2022-10-19T14:01:45.669Z,94081.91
2022-10-19T14:05:09.499Z,94091.66
2022-10-19T14:08:03.173Z,94083.53
2022-10-19T14:10:43.474Z,94084.72
2022-10-19T14:13:23.698Z,94080.47
2022-10-19T14:15:58.452Z,94078.03
2022-10-19T14:18:31.591Z,94085.53
2022-10-19T14:21:11.447Z,94087.88
2022-10-19T14:23:41.614Z,94091.66
2022-10-19T14:26:20.976Z,94084.16
2022-10-19T14:28:56.311Z,94083.81
2022-10-19T14:31:31.329Z,94093.56
2022-10-19T14:34:03.752Z,94086.03
2022-10-19T14:36:46.597Z,94088.63
2022-10-19T14:39:32.108Z,94068.44
2022-10-19T14:42:12.307Z,94047.50
2022-10-19T14:44:44.061Z,94024.13
2022-10-19T14:47:23.183Z,94011.91
2022-10-19T14:49:52.519Z,93996.03
2022-10-19T14:52:31.137Z,94004.38
2022-10-19T14:55:03.163Z,94000.00
2022-10-19T14:57:36.588Z,94002.91
2022-10-19T15:00:16.597Z,93998.94
2022-10-19T15:02:49.450Z,93994.13
2022-10-19T15:05:22.825Z,94003.09
2022-10-19T15:07:51.462Z,93995.88
2022-10-19T15:10:44.493Z,94007.25
2022-10-19T15:13:32.562Z,94014.16
2022-10-19T15:16:01.097Z,94008.09
2022-10-19T15:18:48.923Z,94007.91
2022-10-19T15:21:22.976Z,94013.66
2022-10-19T15:23:53.606Z,94005.81
2022-10-19T15:26:28.258Z,94011.72
2022-10-19T15:29:08.805Z,94001.03
2022-10-19T15:31:37.427Z,94000.22
2022-10-19T15:34:06.698Z,94006.47
2022-10-19T15:36:35.310Z,94010.38
2022-10-19T15:39:17.998Z,94008.34
2022-10-19T15:41:53.232Z,94003.47
2022-10-19T15:44:47.101Z,93994.94
2022-10-19T15:47:21.057Z,93991.63
2022-10-19T15:50:00.293Z,93992.00
2022-10-19T15:52:31.658Z,93979.59
2022-10-19T15:55:01.989Z,93962.31
2022-10-19T15:57:36.370Z,93948.84
2022-10-19T16:00:16.374Z,93934.13
2022-10-19T16:02:44.967Z,93931.00
2022-10-19T16:05:13.451Z,93916.66
2022-10-19T16:07:43.303Z,93912.31
2022-10-19T16:10:23.534Z,93886.81
2022-10-19T16:12:52.177Z,93876.72
2022-10-19T16:15:25.766Z,93872.91
2022-10-19T16:17:57.654Z,93859.34
2022-10-19T16:20:28.194Z,93842.16
2022-10-19T16:22:57.033Z,93831.41
2022-10-19T16:25:26.137Z,93842.78
2022-10-19T16:27:54.628Z,93857.47
2022-10-19T16:30:23.183Z,93873.63
2022-10-19T16:32:51.712Z,93888.50
2022-10-19T16:35:19.601Z,93879.97
2022-10-19T16:37:48.130Z,93881.59
2022-10-19T16:40:16.749Z,93877.03
2022-10-19T16:42:45.259Z,93877.72
2022-10-19T16:45:13.850Z,93881.31
2022-10-19T16:47:42.214Z,93871.75
2022-10-19T16:50:12.614Z,93872.66
2022-10-19T16:52:41.162Z,93867.91
2022-10-19T16:55:10.266Z,93875.34
2022-10-19T16:57:39.044Z,93881.78
2022-10-19T17:00:11.044Z,93886.72
2022-10-19T17:02:41.945Z,93898.81
2022-10-19T17:05:12.933Z,93892.41
2022-10-19T17:07:41.548Z,93908.31
2022-10-19T17:10:10.406Z,93906.66
2022-10-19T17:12:42.132Z,93924.56
2022-10-19T17:15:40.920Z,93933.13
2022-10-19T17:18:00.929Z,93924.94
2022-10-19T17:20:29.403Z,93924.06
2022-10-19T17:22:58.446Z,93922.16
2022-10-19T17:25:28.870Z,93927.25
2022-10-19T17:27:57.771Z,93927.22
2022-10-19T17:30:26.251Z,93918.69
2022-10-19T17:32:54.857Z,93920.72
2022-10-19T17:35:23.306Z,93922.78
2022-10-19T17:37:51.821Z,93928.31
2022-10-19T17:40:20.354Z,93929.81
2022-10-19T17:42:48.801Z,93918.91
2022-10-19T17:45:17.321Z,93927.50
2022-10-19T17:47:45.228Z,93929.38
2022-10-19T17:50:13.758Z,93926.75
2022-10-19T17:52:42.217Z,93928.13
2022-10-19T17:55:12.845Z,93921.09
2022-10-19T17:57:41.822Z,93907.56
2022-10-19T18:00:10.630Z,93911.88
2022-10-19T18:02:39.196Z,93920.50
2022-10-19T18:05:08.077Z,93907.50
2022-10-19T18:07:36.746Z,93907.03
2022-10-19T18:10:05.827Z,93909.97
2022-10-19T18:12:34.290Z,93903.59
2022-10-19T18:15:02.903Z,93900.38
2022-10-19T18:17:31.528Z,93899.75
2022-10-19T18:19:59.706Z,93883.13
2022-10-19T18:22:28.823Z,93880.81
2022-10-19T18:24:57.364Z,93874.88
2022-10-19T18:27:25.933Z,93884.09
2022-10-19T18:29:53.928Z,93882.59
2022-10-19T18:32:22.403Z,93876.91
2022-10-19T18:34:51.010Z,93871.88
2022-10-19T18:37:19.526Z,93861.50
2022-10-19T18:39:48.342Z,93867.16
2022-10-19T18:42:17.665Z,93857.88
2022-10-19T18:44:46.252Z,93843.03
2022-10-19T18:47:14.763Z,93837.06
2022-10-19T18:49:43.275Z,93834.63
2022-10-19T18:52:11.824Z,93835.13
2022-10-19T18:54:40.397Z,93826.50
2022-10-19T18:57:08.890Z,93833.59
2022-10-19T18:59:37.517Z,93834.56
2022-10-19T19:02:13.575Z,93841.84
2022-10-19T19:04:50.811Z,93844.94
2022-10-19T19:07:20.675Z,93843.25
2022-10-19T19:09:49.213Z,93840.22
2022-10-19T19:12:17.811Z,93836.03
2022-10-19T19:14:46.203Z,93847.91
2022-10-19T19:17:14.664Z,93840.78
2022-10-19T19:19:43.344Z,93840.59
2022-10-19T19:22:12.248Z,93842.16
2022-10-19T19:24:40.863Z,93846.44
2022-10-19T19:27:09.644Z,93845.59
2022-10-19T19:29:38.167Z,93845.16
2022-10-19T19:32:06.956Z,93837.16
2022-10-19T19:34:35.506Z,93838.88
2022-10-19T19:37:07.250Z,93837.50
2022-10-19T19:39:37.520Z,93833.34
2022-10-19T19:42:06.125Z,93824.34
2022-10-19T19:44:34.659Z,93824.44
2022-10-19T19:47:03.307Z,93820.28
2022-10-19T19:49:31.874Z,93815.72
2022-10-19T19:52:00.369Z,93814.72
2022-10-19T19:54:28.880Z,93818.00
2022-10-19T19:56:57.485Z,93812.09
2022-10-19T19:59:27.431Z,93805.69
2022-10-19T20:01:55.996Z,93794.97
2022-10-19T20:04:24.682Z,93788.88
2022-10-19T20:06:53.159Z,93783.41
2022-10-19T20:09:21.333Z,93774.31
2022-10-19T20:11:49.876Z,93776.38
2022-10-19T20:14:19.978Z,93755.00
2022-10-19T20:16:48.426Z,93751.31
2022-10-19T20:19:17.528Z,93739.63
2022-10-19T20:21:46.422Z,93748.81
2022-10-19T20:24:14.951Z,93736.84
2022-10-19T20:26:43.460Z,93739.03
2022-10-19T20:29:11.958Z,93746.28
2022-10-19T20:31:41.575Z,93748.00
2022-10-19T20:34:15.151Z,93740.09
2022-10-19T20:36:44.107Z,93734.16
2022-10-19T20:39:12.716Z,93726.06
2022-10-19T20:41:41.251Z,93726.13
2022-10-19T20:44:09.747Z,93732.69
2022-10-19T20:46:38.419Z,93727.41
2022-10-19T20:49:08.641Z,93738.00
2022-10-19T20:51:40.265Z,93731.31
2022-10-19T20:54:13.382Z,93737.63
2022-10-19T20:56:43.140Z,93742.72
2022-10-19T20:59:17.454Z,93757.19
2022-10-19T21:01:47.928Z,93740.41
2022-10-19T21:04:17.474Z,93742.56
2022-10-19T21:06:48.526Z,93742.16
2022-10-19T21:09:19.450Z,93730.91
2022-10-19T21:11:49.066Z,93720.53
2022-10-19T21:14:25.460Z,93716.03
2022-10-19T21:16:57.820Z,93726.50
2022-10-19T21:19:28.750Z,93721.03
2022-10-19T21:22:03.196Z,93721.34
2022-10-19T21:24:37.398Z,93706.16
2022-10-19T21:27:10.261Z,93694.66
2022-10-19T21:29:39.111Z,93691.38
2022-10-19T21:32:07.591Z,93699.25
2022-10-19T21:34:36.622Z,93685.59
2022-10-19T21:37:05.379Z,93686.22
2022-10-19T21:39:33.946Z,93683.53
2022-10-19T21:42:02.508Z,93676.72
2022-10-19T21:44:31.009Z,93675.44
2022-10-19T21:46:59.465Z,93671.75
2022-10-19T21:49:27.952Z,93672.53
2022-10-19T21:51:56.682Z,93674.63
2022-10-19T21:54:26.672Z,93675.66
2022-10-19T21:56:57.199Z,93672.06
2022-10-19T21:59:26.398Z,93662.50
2022-10-19T22:01:56.227Z,93664.19
2022-10-19T22:04:25.645Z,93656.50
2022-10-19T22:06:54.193Z,93656.19
2022-10-19T22:09:24.005Z,93653.91
2022-10-19T22:11:52.744Z,93651.50
2022-10-19T22:14:22.632Z,93652.69
2022-10-19T22:16:51.147Z,93636.22
2022-10-19T22:19:19.682Z,93643.13
2022-10-19T22:21:49.001Z,93641.03
2022-10-19T22:24:17.389Z,93634.63
2022-10-19T22:26:48.174Z,93628.84
2022-10-19T22:29:16.933Z,93630.03
2022-10-19T22:31:46.596Z,93613.19
2022-10-19T22:34:18.885Z,93616.00
2022-10-19T22:36:47.357Z,93615.78
2022-10-19T22:39:15.991Z,93610.59
2022-10-19T22:41:44.637Z,93609.22
2022-10-19T22:44:13.372Z,93613.69
2022-10-19T22:46:41.855Z,93620.88
2022-10-19T22:49:10.606Z,93610.59
2022-10-19T22:51:39.118Z,93611.59
2022-10-19T22:54:07.502Z,93611.31
2022-10-19T22:56:36.040Z,93612.00
2022-10-19T22:59:06.591Z,93596.44
2022-10-19T23:01:35.348Z,93602.72
2022-10-19T23:04:04.186Z,93598.50
2022-10-19T23:06:32.775Z,93607.81
2022-10-19T23:09:01.307Z,93591.88
2022-10-19T23:11:29.994Z,93589.34
2022-10-19T23:13:58.482Z,93591.63
2022-10-19T23:19:00.234Z,93584.72
2022-10-19T23:21:28.802Z,93591.84
2022-10-19T23:23:57.877Z,93582.84
2022-10-19T23:26:26.509Z,93583.78
2022-10-19T23:28:55.026Z,93570.03
2022-10-19T23:31:31.365Z,93574.91
2022-10-19T23:33:59.854Z,93567.44
2022-10-19T23:36:30.200Z,93565.03
2022-10-19T23:39:00.334Z,93579.16
2022-10-19T23:41:28.682Z,93577.00
2022-10-19T23:43:57.295Z,93576.47
2022-10-19T23:46:25.947Z,93575.38
2022-10-19T23:48:54.516Z,93568.19
2022-10-19T23:51:23.859Z,93567.59
2022-10-19T23:53:53.958Z,93565.31
2022-10-19T23:56:30.453Z,93567.63
2022-10-19T23:58:59.019Z,93563.53
